createdAt,value
2019-02-07T00:01:39.072Z,68.47
2019-02-07T00:04:09.604Z,65.57
2019-02-07T00:06:39.899Z,69.37
2019-02-07T00:09:10.716Z,70.60
2019-02-07T00:11:41.282Z,68.63
2019-02-07T00:14:11.712Z,70.00
2019-02-07T00:16:42.350Z,69.13
2019-02-07T00:19:13.244Z,67.33
2019-02-07T00:21:43.597Z,66.97
2019-02-07T00:24:13.999Z,68.30
2019-02-07T00:26:44.874Z,64.90
2019-02-07T00:29:15.102Z,62.23
2019-02-07T00:31:45.515Z,66.17
2019-02-07T00:34:15.899Z,65.27
2019-02-07T00:36:46.351Z,63.47
2019-02-07T00:39:16.796Z,62.23
2019-02-07T00:41:47.334Z,61.67
2019-02-07T00:44:17.872Z,64.33
2019-02-07T00:46:48.342Z,63.40
2019-02-07T00:49:18.754Z,65.10
2019-02-07T00:51:49.238Z,70.20
2019-02-07T00:54:20.084Z,74.07
2019-02-07T00:56:50.614Z,74.40
2019-02-07T00:59:21.006Z,73.57
2019-02-07T01:01:51.454Z,66.73
2019-02-07T01:04:21.968Z,69.57
2019-02-07T01:06:52.715Z,73.07
2019-02-07T01:09:23.200Z,73.83
2019-02-07T01:11:53.670Z,76.60
2019-02-07T01:14:24.213Z,74.03
2019-02-07T01:16:54.715Z,76.57
2019-02-07T01:19:25.383Z,73.20
2019-02-07T01:21:55.744Z,75.03
2019-02-07T01:24:26.122Z,74.70
2019-02-07T01:26:56.487Z,72.60
2019-02-07T01:29:26.972Z,74.27
2019-02-07T01:31:57.461Z,77.33
2019-02-07T01:34:28.220Z,76.80
2019-02-07T01:36:58.764Z,78.43
2019-02-07T01:39:29.199Z,77.03
2019-02-07T01:41:59.689Z,75.77
2019-02-07T01:44:30.160Z,80.27
2019-02-07T01:47:00.673Z,78.10
2019-02-07T01:49:31.100Z,77.23
2019-02-07T01:52:02.438Z,75.87
2019-02-07T01:54:32.779Z,76.57
2019-02-07T01:57:03.266Z,75.90
2019-02-07T01:59:33.593Z,76.33
2019-02-07T02:02:04.461Z,72.60
2019-02-07T02:04:34.927Z,73.73
2019-02-07T02:07:05.526Z,72.37
2019-02-07T02:09:39.481Z,68.23
2019-02-07T02:12:09.944Z,69.80
2019-02-07T02:14:40.781Z,66.83
2019-02-07T02:17:11.181Z,68.30
2019-02-07T02:19:41.630Z,68.93
2019-02-07T02:22:11.908Z,67.57
2019-02-07T02:24:44.773Z,69.23
2019-02-07T02:27:14.251Z,65.60
2019-02-07T02:29:44.702Z,64.17
2019-02-07T02:32:15.216Z,63.93
2019-02-07T02:34:45.892Z,66.03
2019-02-07T02:37:16.354Z,65.37
2019-02-07T02:39:46.766Z,64.20
2019-02-07T02:42:17.592Z,65.03
2019-02-07T02:44:48.102Z,65.20
2019-02-07T02:47:18.534Z,64.20
2019-02-07T02:49:49.009Z,65.60
2019-02-07T02:52:19.332Z,66.40
2019-02-07T02:54:54.273Z,65.23
2019-02-07T02:57:24.506Z,65.60
2019-02-07T02:59:55.131Z,63.10
2019-02-07T03:02:44.516Z,62.63
2019-02-07T03:05:34.422Z,58.77
2019-02-07T03:08:24.161Z,56.87
2019-02-07T03:11:13.022Z,61.67
2019-02-07T03:14:02.480Z,56.73
2019-02-07T03:16:51.849Z,57.37
2019-02-07T03:19:41.343Z,54.03
2019-02-07T03:22:30.810Z,54.07
2019-02-07T03:25:20.284Z,52.33
2019-02-07T03:28:09.860Z,53.77
2019-02-07T03:30:59.255Z,51.20
2019-02-07T03:33:38.883Z,49.07
2019-02-07T03:36:28.447Z,51.80
2019-02-07T03:39:14.559Z,51.20
2019-02-07T03:42:03.903Z,51.53
2019-02-07T03:44:53.483Z,50.93
2019-02-07T03:47:42.931Z,51.97
2019-02-07T03:50:32.420Z,49.10
2019-02-07T03:53:21.896Z,50.13
2019-02-07T03:56:11.307Z,49.63
2019-02-07T03:59:00.850Z,46.23
2019-02-07T04:01:50.732Z,43.90
2019-02-07T04:04:40.132Z,45.00
2019-02-07T04:07:19.744Z,44.27
2019-02-07T04:10:09.243Z,43.53
2019-02-07T04:12:58.660Z,41.87
2019-02-07T04:15:48.165Z,40.93
2019-02-07T04:18:37.659Z,39.40
2019-02-07T04:21:23.645Z,38.50
2019-02-07T04:24:13.062Z,40.27
2019-02-07T04:27:02.871Z,40.50
2019-02-07T04:29:53.576Z,39.83
2019-02-07T04:32:43.080Z,40.83
2019-02-07T04:35:26.978Z,40.47
2019-02-07T04:38:16.513Z,40.40
2019-02-07T04:41:05.815Z,40.47
2019-02-07T04:43:55.418Z,39.07
2019-02-07T04:46:44.858Z,38.60
2019-02-07T04:49:34.405Z,39.37
2019-02-07T04:52:23.842Z,37.83
2019-02-07T04:55:06.445Z,39.73
2019-02-07T04:57:45.502Z,36.57
2019-02-07T05:00:35.183Z,36.67
2019-02-07T05:03:23.106Z,34.77
2019-02-07T05:06:02.422Z,34.77
2019-02-07T05:08:43.365Z,36.00
2019-02-07T05:11:33.712Z,34.60
2019-02-07T05:14:23.143Z,35.40
2019-02-07T05:17:12.640Z,35.03
2019-02-07T05:20:02.054Z,34.00
2019-02-07T05:22:50.442Z,34.40
2019-02-07T05:25:40.012Z,34.70
2019-02-07T05:28:29.551Z,33.13
2019-02-07T05:31:13.451Z,34.97
2019-02-07T05:34:02.877Z,36.20
2019-02-07T05:36:52.265Z,35.07
2019-02-07T05:39:34.776Z,34.47
2019-02-07T05:42:24.245Z,33.80
2019-02-07T05:45:13.742Z,32.50
2019-02-07T05:47:59.884Z,34.83
2019-02-07T05:50:49.629Z,35.73
2019-02-07T05:53:31.169Z,34.67
2019-02-07T05:56:21.143Z,35.90
2019-02-07T05:59:10.665Z,35.53
2019-02-07T06:02:00.533Z,33.23
2019-02-07T06:04:48.558Z,33.67
2019-02-07T06:07:37.928Z,34.03
2019-02-07T06:10:29.990Z,33.37
2019-02-07T06:13:20.602Z,32.37
2019-02-07T06:16:05.418Z,32.33
2019-02-07T06:18:54.925Z,33.80
2019-02-07T06:21:38.393Z,31.77
2019-02-07T06:24:27.952Z,33.17
2019-02-07T06:27:17.504Z,33.07
2019-02-07T06:29:56.275Z,30.33
2019-02-07T06:32:34.874Z,31.10
2019-02-07T06:35:24.742Z,33.40
2019-02-07T06:38:01.755Z,32.17
2019-02-07T06:40:52.345Z,31.47
2019-02-07T06:43:42.291Z,32.67
2019-02-07T06:46:31.758Z,31.27
2019-02-07T06:49:15.849Z,30.93
2019-02-07T06:52:05.262Z,31.47
2019-02-07T06:54:54.842Z,31.67
2019-02-07T06:57:44.247Z,31.57
2019-02-07T07:00:33.026Z,30.50
2019-02-07T07:03:22.374Z,32.03
2019-02-07T07:06:11.713Z,33.07
2019-02-07T07:09:01.203Z,30.13
2019-02-07T07:11:51.566Z,29.73
2019-02-07T07:14:30.544Z,29.93
2019-02-07T07:17:24.533Z,29.83
2019-02-07T07:20:05.215Z,29.67
2019-02-07T07:22:54.624Z,29.87
2019-02-07T07:25:43.922Z,28.53
2019-02-07T07:28:33.367Z,30.00
2019-02-07T07:31:18.581Z,28.70
2019-02-07T07:34:08.383Z,29.30
2019-02-07T07:36:56.034Z,29.17
2019-02-07T07:39:45.452Z,28.33
2019-02-07T07:42:25.810Z,29.80
2019-02-07T07:45:09.903Z,30.07
2019-02-07T07:47:59.331Z,29.17
2019-02-07T07:50:48.836Z,28.27
2019-02-07T07:53:38.435Z,27.43
2019-02-07T07:56:27.931Z,26.07
2019-02-07T07:59:07.357Z,27.47
2019-02-07T08:01:56.852Z,28.03
2019-02-07T08:04:41.817Z,25.60
2019-02-07T08:07:20.431Z,27.83
2019-02-07T08:10:14.632Z,26.50
2019-02-07T08:13:04.620Z,27.00
2019-02-07T08:15:50.604Z,26.83
2019-02-07T08:18:40.108Z,27.90
2019-02-07T08:21:29.501Z,27.10
2019-02-07T08:24:15.584Z,26.63
2019-02-07T08:27:04.964Z,25.97
2019-02-07T08:29:54.587Z,26.07
2019-02-07T08:32:43.966Z,27.20
2019-02-07T08:35:36.603Z,26.47
2019-02-07T08:38:26.040Z,25.37
2019-02-07T08:41:15.494Z,26.47
2019-02-07T08:44:05.272Z,26.30
2019-02-07T08:46:52.864Z,26.17
2019-02-07T08:49:42.434Z,27.67
2019-02-07T08:52:31.893Z,27.87
2019-02-07T08:55:21.981Z,27.50
2019-02-07T08:57:59.558Z,25.57
2019-02-07T09:00:38.286Z,26.90
2019-02-07T09:03:27.704Z,25.87
2019-02-07T09:06:17.166Z,25.70
2019-02-07T09:09:06.681Z,24.73
2019-02-07T09:11:56.801Z,25.20
2019-02-07T09:14:46.191Z,25.53
2019-02-07T09:17:35.639Z,25.67
2019-02-07T09:20:20.117Z,25.30
2019-02-07T09:22:58.103Z,24.57
2019-02-07T09:25:47.514Z,24.73
2019-02-07T09:28:36.812Z,25.47
2019-02-07T09:31:26.357Z,23.60
2019-02-07T09:34:15.795Z,25.43
2019-02-07T09:37:05.223Z,24.57
2019-02-07T09:39:54.654Z,25.80
2019-02-07T09:42:38.901Z,23.27
2019-02-07T09:45:32.773Z,25.30
2019-02-07T09:48:22.051Z,24.50
2019-02-07T09:51:05.187Z,24.37
2019-02-07T09:53:43.922Z,24.20
2019-02-07T09:56:33.262Z,25.87
2019-02-07T09:59:22.876Z,24.93
2019-02-07T10:02:10.789Z,24.40
2019-02-07T10:04:51.282Z,24.33
2019-02-07T10:07:40.620Z,25.17
2019-02-07T10:10:30.311Z,25.47
2019-02-07T10:13:19.687Z,24.50
2019-02-07T10:16:00.502Z,24.20
2019-02-07T10:18:49.798Z,23.07
2019-02-07T10:21:39.722Z,23.60
2019-02-07T10:24:29.783Z,23.53
2019-02-07T10:27:14.597Z,23.13
2019-02-07T10:30:03.990Z,21.33
2019-02-07T10:32:50.143Z,23.10
2019-02-07T10:35:39.624Z,22.20
2019-02-07T10:38:26.276Z,20.83
2019-02-07T10:41:15.827Z,21.67
2019-02-07T10:44:06.464Z,21.47
2019-02-07T10:46:56.608Z,20.50
2019-02-07T10:49:45.948Z,21.17
2019-02-07T10:52:35.974Z,21.73
2019-02-07T10:55:25.657Z,20.93
2019-02-07T10:58:15.276Z,19.77
2019-02-07T11:01:04.688Z,18.80
2019-02-07T11:03:54.786Z,19.27
2019-02-07T11:06:44.028Z,19.47
2019-02-07T11:09:29.228Z,18.67
2019-02-07T11:12:18.571Z,19.07
2019-02-07T11:15:01.442Z,17.03
2019-02-07T11:17:51.256Z,16.50
2019-02-07T11:20:37.353Z,15.60
2019-02-07T11:23:23.704Z,16.60
2019-02-07T11:26:05.184Z,18.43
2019-02-07T11:28:54.625Z,17.00
2019-02-07T11:31:44.206Z,17.40
2019-02-07T11:34:35.842Z,17.97
2019-02-07T11:37:25.256Z,17.30
2019-02-07T11:40:09.982Z,16.57
2019-02-07T11:42:59.479Z,16.30
2019-02-07T11:45:36.352Z,16.57
2019-02-07T11:48:25.961Z,17.67
2019-02-07T11:51:05.088Z,17.60
2019-02-07T11:53:54.648Z,18.07
2019-02-07T11:56:46.486Z,18.17
2019-02-07T11:59:34.785Z,17.30
2019-02-07T12:02:18.477Z,17.30
2019-02-07T12:05:07.990Z,17.10
2019-02-07T12:07:57.403Z,16.50
2019-02-07T12:10:47.732Z,17.53
2019-02-07T12:13:32.956Z,16.17
2019-02-07T12:16:23.106Z,16.67
2019-02-07T12:19:18.050Z,16.90
2019-02-07T12:22:03.713Z,16.53
2019-02-07T12:24:53.138Z,16.03
2019-02-07T12:27:39.092Z,15.60
2019-02-07T12:30:30.744Z,16.20
2019-02-07T12:33:21.287Z,17.57
2019-02-07T12:36:03.460Z,16.17
2019-02-07T12:38:53.120Z,17.17
2019-02-07T12:41:42.609Z,17.17
2019-02-07T12:44:32.320Z,16.87
2019-02-07T12:47:22.085Z,17.03
2019-02-07T12:50:11.611Z,17.77
2019-02-07T12:52:50.704Z,17.83
2019-02-07T12:55:34.655Z,18.07
2019-02-07T12:58:21.041Z,17.40
2019-02-07T13:01:10.479Z,18.40
2019-02-07T13:04:00.030Z,18.03
2019-02-07T13:06:47.803Z,17.67
2019-02-07T13:09:37.230Z,18.83
2019-02-07T13:12:28.316Z,17.40
2019-02-07T13:15:17.901Z,17.87
2019-02-07T13:18:02.641Z,18.23
2019-02-07T13:20:51.976Z,17.70
2019-02-07T13:23:41.473Z,17.03
2019-02-07T13:26:21.838Z,16.97
2019-02-07T13:29:11.314Z,16.97
2019-02-07T13:32:00.839Z,16.80
2019-02-07T13:34:50.322Z,16.33
2019-02-07T13:37:39.782Z,15.87
2019-02-07T13:40:29.519Z,15.80
2019-02-07T13:43:18.981Z,16.73
2019-02-07T13:46:07.025Z,17.10
2019-02-07T13:48:56.504Z,18.57
2019-02-07T13:51:44.594Z,17.13
2019-02-07T13:54:34.107Z,17.47
2019-02-07T13:57:23.712Z,16.63
2019-02-07T14:00:05.933Z,17.13
2019-02-07T14:02:55.719Z,17.40
2019-02-07T14:05:43.299Z,17.67
2019-02-07T14:08:38.419Z,17.23
2019-02-07T14:11:24.092Z,17.23
2019-02-07T14:14:13.617Z,16.83
2019-02-07T14:17:02.933Z,16.97
2019-02-07T14:20:03.249Z,17.50
2019-02-07T14:22:44.643Z,16.50
2019-02-07T14:25:34.132Z,16.50
2019-02-07T14:28:23.573Z,16.50
2019-02-07T14:31:12.964Z,17.30
2019-02-07T14:34:02.034Z,16.87
2019-02-07T14:36:46.955Z,17.27
2019-02-07T14:39:36.675Z,17.83
2019-02-07T14:42:26.241Z,16.73
2019-02-07T14:45:15.866Z,17.37
2019-02-07T14:47:46.304Z,17.87
2019-02-07T14:50:16.749Z,17.30
2019-02-07T14:52:47.083Z,17.93
2019-02-07T14:55:17.748Z,15.97
2019-02-07T14:57:48.310Z,16.40
2019-02-07T15:00:21.353Z,16.47
2019-02-07T15:02:52.740Z,16.50
2019-02-07T15:05:23.214Z,16.40
2019-02-07T15:07:53.513Z,16.43
2019-02-07T15:10:24.347Z,16.23
2019-02-07T15:12:55.692Z,16.77
2019-02-07T15:15:26.330Z,16.87
2019-02-07T15:17:56.679Z,16.53
2019-02-07T15:20:27.292Z,16.27
2019-02-07T15:22:58.014Z,15.60
2019-02-07T15:25:28.445Z,16.23
2019-02-07T15:27:58.864Z,16.93
2019-02-07T15:30:29.360Z,16.73
2019-02-07T15:33:00.794Z,16.53
2019-02-07T15:35:35.240Z,18.70
2019-02-07T15:38:05.582Z,17.10
2019-02-07T15:40:36.027Z,17.63
2019-02-07T15:43:06.539Z,18.90
2019-02-07T15:45:36.938Z,18.93
2019-02-07T15:48:07.424Z,18.87
2019-02-07T15:50:38.531Z,19.77
2019-02-07T15:53:10.652Z,19.33
2019-02-07T15:55:41.166Z,19.43
2019-02-07T15:58:11.601Z,19.40
2019-02-07T16:01:01.162Z,18.97
2019-02-07T16:03:51.797Z,18.07
2019-02-07T16:06:22.263Z,18.77
2019-02-07T16:08:53.760Z,18.07
2019-02-07T16:11:24.246Z,17.37
2019-02-07T16:13:54.621Z,16.50
2019-02-07T16:16:25.015Z,15.00
2019-02-07T16:18:55.568Z,15.40
2019-02-07T16:21:26.027Z,15.50
2019-02-07T16:23:58.092Z,16.30
2019-02-07T16:26:28.703Z,17.37
2019-02-07T16:28:59.079Z,16.83
2019-02-07T16:31:29.546Z,17.00
2019-02-07T16:34:00.279Z,16.13
2019-02-07T16:36:31.284Z,15.80
2019-02-07T16:39:01.900Z,16.27
2019-02-07T16:41:33.533Z,16.00
2019-02-07T16:44:04.121Z,16.10
2019-02-07T16:46:34.734Z,15.80
2019-02-07T16:49:05.284Z,16.50
2019-02-07T16:51:35.762Z,16.27
2019-02-07T16:54:06.155Z,15.10
2019-02-07T16:56:36.774Z,15.77
2019-02-07T16:59:07.162Z,16.20
2019-02-07T17:01:37.629Z,16.33
2019-02-07T17:04:08.557Z,16.67
2019-02-07T17:06:39.106Z,15.37
2019-02-07T17:09:28.004Z,14.90
2019-02-07T17:12:00.941Z,14.53
2019-02-07T17:14:30.625Z,15.27
2019-02-07T17:17:01.134Z,15.33
2019-02-07T17:19:32.152Z,15.23
2019-02-07T17:22:02.591Z,14.73
2019-02-07T17:24:33.291Z,14.70
2019-02-07T17:27:07.115Z,14.27
2019-02-07T17:29:38.802Z,15.10
2019-02-07T17:32:09.294Z,14.87
2019-02-07T17:34:39.760Z,14.33
2019-02-07T17:37:10.243Z,13.90
2019-02-07T17:39:40.602Z,13.83
2019-02-07T17:42:11.063Z,14.57
2019-02-07T17:44:41.404Z,14.07
2019-02-07T17:47:11.798Z,14.17
2019-02-07T17:49:42.310Z,15.27
2019-02-07T17:52:13.978Z,16.50
2019-02-07T17:54:44.931Z,18.50
2019-02-07T17:57:15.214Z,18.53
2019-02-07T17:59:45.728Z,20.23
2019-02-07T18:02:16.275Z,20.40
2019-02-07T18:04:46.731Z,21.30
2019-02-07T18:07:17.153Z,21.63
2019-02-07T18:09:47.854Z,21.07
2019-02-07T18:12:18.435Z,22.00
2019-02-07T18:14:48.960Z,20.90
2019-02-07T18:17:19.304Z,20.80
2019-02-07T18:19:49.839Z,21.77
2019-02-07T18:22:20.969Z,20.47
2019-02-07T18:24:51.525Z,20.10
2019-02-07T18:27:23.254Z,22.27
2019-02-07T18:29:53.865Z,21.93
2019-02-07T18:32:24.331Z,21.67
2019-02-07T18:34:54.905Z,21.37
2019-02-07T18:37:25.360Z,21.37
2019-02-07T18:39:55.876Z,22.40
2019-02-07T18:42:26.321Z,22.47
2019-02-07T18:44:56.718Z,22.37
2019-02-07T18:47:27.271Z,22.77
2019-02-07T18:49:58.321Z,22.80
2019-02-07T18:52:28.954Z,23.10
2019-02-07T18:54:59.454Z,23.83
2019-02-07T18:57:29.802Z,22.97
2019-02-07T19:00:00.181Z,23.37
2019-02-07T19:02:30.702Z,23.53
2019-02-07T19:05:01.332Z,24.27
2019-02-07T19:07:31.603Z,24.40
2019-02-07T19:10:03.156Z,24.70
2019-02-07T19:12:33.873Z,24.87
2019-02-07T19:15:07.602Z,27.07
2019-02-07T19:17:38.023Z,25.10
2019-02-07T19:20:12.448Z,26.50
2019-02-07T19:22:43.323Z,25.93
2019-02-07T19:25:14.184Z,26.83
2019-02-07T19:27:46.229Z,26.40
2019-02-07T19:30:23.694Z,27.80
2019-02-07T19:32:54.274Z,26.50
2019-02-07T19:35:25.034Z,27.47
2019-02-07T19:37:56.224Z,29.47
2019-02-07T19:40:26.772Z,27.63
2019-02-07T19:42:57.583Z,27.93
2019-02-07T19:45:28.424Z,29.13
2019-02-07T19:47:58.995Z,28.50
2019-02-07T19:50:29.564Z,30.03
2019-02-07T19:53:00.213Z,30.37
2019-02-07T19:55:30.901Z,29.63
2019-02-07T19:58:01.492Z,28.77
2019-02-07T20:00:32.202Z,30.10
2019-02-07T20:03:02.723Z,29.47
2019-02-07T20:05:33.506Z,29.50
2019-02-07T20:08:04.391Z,29.20
2019-02-07T20:10:35.694Z,29.67
2019-02-07T20:13:06.322Z,31.10
2019-02-07T20:15:39.313Z,30.40
2019-02-07T20:18:10.748Z,30.97
2019-02-07T20:20:41.533Z,29.47
2019-02-07T20:23:12.135Z,28.60
2019-02-07T20:25:43.054Z,27.77
2019-02-07T20:28:13.602Z,27.53
2019-02-07T20:30:44.512Z,28.43
2019-02-07T20:33:15.205Z,27.80
2019-02-07T20:35:45.709Z,27.70
2019-02-07T20:38:16.592Z,28.70
2019-02-07T20:40:47.516Z,29.47
2019-02-07T20:43:18.213Z,29.77
2019-02-07T20:45:50.323Z,29.40
2019-02-07T20:48:21.380Z,31.27
2019-02-07T20:50:52.493Z,30.10
2019-02-07T20:53:24.113Z,30.80
2019-02-07T20:55:54.625Z,30.13
2019-02-07T20:58:25.355Z,30.23
2019-02-07T21:00:55.838Z,29.40
2019-02-07T21:03:26.238Z,30.07
2019-02-07T21:05:56.549Z,28.00
2019-02-07T21:08:27.084Z,27.93
2019-02-07T21:10:57.486Z,28.10
2019-02-07T21:13:27.913Z,28.13
2019-02-07T21:15:58.514Z,27.27
2019-02-07T21:18:30.027Z,25.93
2019-02-07T21:21:00.530Z,25.67
2019-02-07T21:23:31.531Z,25.80
2019-02-07T21:26:05.086Z,26.83
2019-02-07T21:28:35.491Z,27.63
2019-02-07T21:31:06.154Z,27.33
2019-02-07T21:33:36.573Z,27.20
2019-02-07T21:36:06.953Z,26.93
2019-02-07T21:38:37.623Z,27.03
2019-02-07T21:41:08.853Z,26.60
2019-02-07T21:43:39.245Z,26.13
2019-02-07T21:46:09.628Z,26.17
2019-02-07T21:48:40.285Z,23.83
2019-02-07T21:51:10.839Z,25.63
2019-02-07T21:53:41.632Z,25.77
2019-02-07T21:56:12.078Z,26.53
2019-02-07T21:58:42.449Z,27.80
2019-02-07T22:01:12.736Z,28.90
2019-02-07T22:03:43.139Z,28.50
2019-02-07T22:06:14.490Z,27.87
2019-02-07T22:08:45.103Z,29.17
2019-02-07T22:11:15.529Z,28.70
2019-02-07T22:13:45.963Z,29.73
2019-02-07T22:16:16.627Z,27.63
2019-02-07T22:18:46.983Z,29.87
2019-02-07T22:21:17.615Z,29.10
2019-02-07T22:23:48.055Z,29.73
2019-02-07T22:26:18.502Z,29.80
2019-02-07T22:28:49.032Z,29.87
2019-02-07T22:31:19.420Z,30.00
2019-02-07T22:33:50.107Z,30.97
2019-02-07T22:36:20.532Z,31.53
2019-02-07T22:38:50.829Z,28.33
2019-02-07T22:41:21.219Z,30.00
2019-02-07T22:43:51.710Z,31.03
2019-02-07T22:46:23.133Z,31.57
2019-02-07T22:48:53.912Z,29.37
2019-02-07T22:51:24.419Z,29.63
2019-02-07T22:53:54.819Z,30.83
2019-02-07T22:56:25.337Z,31.87
2019-02-07T22:58:56.432Z,32.00
2019-02-07T23:01:52.171Z,33.93
2019-02-07T23:04:24.062Z,31.60
2019-02-07T23:06:54.522Z,33.00
2019-02-07T23:09:24.924Z,33.53
2019-02-07T23:11:55.707Z,32.03
2019-02-07T23:14:26.059Z,32.03
2019-02-07T23:16:56.701Z,33.50
2019-02-07T23:19:27.111Z,33.83
2019-02-07T23:21:57.522Z,32.40
2019-02-07T23:24:28.009Z,32.63
2019-02-07T23:26:58.541Z,32.60
2019-02-07T23:29:29.097Z,33.43
2019-02-07T23:31:59.526Z,32.33
2019-02-07T23:34:29.942Z,32.83
2019-02-07T23:37:00.559Z,32.13
2019-02-07T23:39:31.282Z,33.03
2019-02-07T23:42:01.671Z,32.13
2019-02-07T23:44:32.189Z,33.83
2019-02-07T23:47:02.654Z,32.53
2019-02-07T23:49:33.096Z,32.93
2019-02-07T23:52:03.509Z,33.07
2019-02-07T23:54:34.264Z,33.23
2019-02-07T23:57:04.681Z,32.53
2019-02-07T23:59:35.379Z,34.73
